sensor_id;sensor_type;location;lat;lon;timestamp;pressure;altitude;pressure_sealevel;temperature;humidity
2184;BME280;1098;48.940;8.962;2023-02-12T00:02:09;100475.47;;;9.18;100.00
2184;BME280;1098;48.940;8.962;2023-02-12T00:04:38;100490.47;;;9.21;100.00
2184;BME280;1098;48.940;8.962;2023-02-12T00:07:06;100496.34;;;9.16;100.00
2184;BME280;1098;48.940;8.962;2023-02-12T00:09:35;100492.78;;;9.73;100.00
2184;BME280;1098;48.940;8.962;2023-02-12T00:12:06;100491.28;;;8.81;100.00
2184;BME280;1098;48.940;8.962;2023-02-12T00:14:37;100499.81;;;8.44;100.00
2184;BME280;1098;48.940;8.962;2023-02-12T00:17:05;100500.72;;;8.69;100.00
2184;BME280;1098;48.940;8.962;2023-02-12T00:19:35;100493.84;;;9.23;100.00
2184;BME280;1098;48.940;8.962;2023-02-12T00:22:04;100506.78;;;8.79;100.00
2184;BME280;1098;48.940;8.962;2023-02-12T00:24:33;100508.53;;;8.38;100.00
2184;BME280;1098;48.940;8.962;2023-02-12T00:27:01;100500.41;;;9.04;100.00
2184;BME280;1098;48.940;8.962;2023-02-12T00:29:30;100507.31;;;9.55;100.00
2184;BME280;1098;48.940;8.962;2023-02-12T00:32:00;100503.28;;;9.43;100.00
2184;BME280;1098;48.940;8.962;2023-02-12T00:34:28;100503.28;;;9.35;100.00
2184;BME280;1098;48.940;8.962;2023-02-12T00:36:57;100507.66;;;9.28;100.00
2184;BME280;1098;48.940;8.962;2023-02-12T00:39:26;100510.00;;;9.39;100.00
2184;BME280;1098;48.940;8.962;2023-02-12T00:41:54;100500.94;;;9.08;100.00
2184;BME280;1098;48.940;8.962;2023-02-12T00:44:23;100515.41;;;9.23;100.00
2184;BME280;1098;48.940;8.962;2023-02-12T00:46:51;100511.00;;;8.81;100.00
2184;BME280;1098;48.940;8.962;2023-02-12T00:49:21;100516.44;;;9.06;100.00
2184;BME280;1098;48.940;8.962;2023-02-12T00:51:49;100520.13;;;8.88;100.00
2184;BME280;1098;48.940;8.962;2023-02-12T00:54:20;100512.88;;;9.21;100.00
2184;BME280;1098;48.940;8.962;2023-02-12T00:56:48;100526.06;;;9.33;100.00
2184;BME280;1098;48.940;8.962;2023-02-12T00:59:16;100523.44;;;8.24;100.00
2184;BME280;1098;48.940;8.962;2023-02-12T01:01:45;100526.00;;;8.00;100.00
2184;BME280;1098;48.940;8.962;2023-02-12T01:04:14;100510.19;;;7.71;100.00
2184;BME280;1098;48.940;8.962;2023-02-12T01:06:44;100504.59;;;7.90;100.00
2184;BME280;1098;48.940;8.962;2023-02-12T01:09:13;100522.53;;;8.07;100.00
2184;BME280;1098;48.940;8.962;2023-02-12T01:11:44;100520.56;;;7.91;100.00
2184;BME280;1098;48.940;8.962;2023-02-12T01:14:12;100519.84;;;8.41;100.00
2184;BME280;1098;48.940;8.962;2023-02-12T01:16:41;100513.41;;;7.74;100.00
2184;BME280;1098;48.940;8.962;2023-02-12T01:19:10;100513.75;;;8.05;100.00
2184;BME280;1098;48.940;8.962;2023-02-12T01:21:39;100514.00;;;7.86;100.00
2184;BME280;1098;48.940;8.962;2023-02-12T01:24:08;100522.00;;;8.04;100.00
2184;BME280;1098;48.940;8.962;2023-02-12T01:26:37;100518.41;;;7.95;100.00
2184;BME280;1098;48.940;8.962;2023-02-12T01:29:06;100501.88;;;7.56;100.00
2184;BME280;1098;48.940;8.962;2023-02-12T01:31:37;100518.69;;;8.10;100.00
2184;BME280;1098;48.940;8.962;2023-02-12T01:34:06;100522.06;;;8.20;100.00
2184;BME280;1098;48.940;8.962;2023-02-12T01:36:35;100523.88;;;8.45;100.00
2184;BME280;1098;48.940;8.962;2023-02-12T01:39:04;100517.22;;;8.66;100.00
2184;BME280;1098;48.940;8.962;2023-02-12T01:41:37;100518.94;;;8.33;100.00
2184;BME280;1098;48.940;8.962;2023-02-12T01:44:10;100513.88;;;8.30;100.00
2184;BME280;1098;48.940;8.962;2023-02-12T01:46:39;100513.84;;;8.21;100.00
2184;BME280;1098;48.940;8.962;2023-02-12T01:49:12;100511.88;;;8.90;100.00
2184;BME280;1098;48.940;8.962;2023-02-12T01:51:45;100502.06;;;8.65;100.00
2184;BME280;1098;48.940;8.962;2023-02-12T01:54:16;100498.59;;;8.38;100.00
2184;BME280;1098;48.940;8.962;2023-02-12T01:56:48;100507.50;;;8.31;100.00
2184;BME280;1098;48.940;8.962;2023-02-12T01:59:42;100511.19;;;7.96;100.00
2184;BME280;1098;48.940;8.962;2023-02-12T02:02:12;100506.94;;;7.85;100.00
2184;BME280;1098;48.940;8.962;2023-02-12T02:04:47;100506.19;;;7.75;100.00
2184;BME280;1098;48.940;8.962;2023-02-12T02:07:16;100497.56;;;7.97;100.00
2184;BME280;1098;48.940;8.962;2023-02-12T02:09:45;100500.56;;;7.86;100.00
2184;BME280;1098;48.940;8.962;2023-02-12T02:12:15;100497.25;;;8.34;100.00
2184;BME280;1098;48.940;8.962;2023-02-12T02:15:16;100490.81;;;8.27;100.00
2184;BME280;1098;48.940;8.962;2023-02-12T02:17:50;100490.22;;;8.49;100.00
2184;BME280;1098;48.940;8.962;2023-02-12T02:23:40;100487.44;;;8.25;100.00
2184;BME280;1098;48.940;8.962;2023-02-12T02:26:35;100490.03;;;8.01;100.00
2184;BME280;1098;48.940;8.962;2023-02-12T02:29:34;100478.75;;;8.39;100.00
2184;BME280;1098;48.940;8.962;2023-02-12T02:32:12;100472.38;;;8.48;100.00
2184;BME280;1098;48.940;8.962;2023-02-12T02:34:49;100465.84;;;9.00;100.00
2184;BME280;1098;48.940;8.962;2023-02-12T02:37:26;100477.09;;;8.12;100.00
2184;BME280;1098;48.940;8.962;2023-02-12T02:39:58;100474.91;;;8.50;100.00
2184;BME280;1098;48.940;8.962;2023-02-12T02:42:32;100476.47;;;8.18;100.00
2184;BME280;1098;48.940;8.962;2023-02-12T02:45:07;100483.81;;;7.74;100.00
2184;BME280;1098;48.940;8.962;2023-02-12T02:47:43;100472.72;;;8.11;100.00
2184;BME280;1098;48.940;8.962;2023-02-12T02:50:16;100468.91;;;8.22;100.00
2184;BME280;1098;48.940;8.962;2023-02-12T02:52:48;100477.09;;;8.04;100.00
2184;BME280;1098;48.940;8.962;2023-02-12T02:55:19;100480.25;;;7.66;100.00
2184;BME280;1098;48.940;8.962;2023-02-12T02:57:53;100475.75;;;7.74;100.00
2184;BME280;1098;48.940;8.962;2023-02-12T03:00:26;100469.75;;;7.54;100.00
2184;BME280;1098;48.940;8.962;2023-02-12T03:03:04;100473.47;;;7.87;100.00
2184;BME280;1098;48.940;8.962;2023-02-12T03:05:38;100470.72;;;8.13;100.00
2184;BME280;1098;48.940;8.962;2023-02-12T03:08:09;100481.06;;;8.34;100.00
2184;BME280;1098;48.940;8.962;2023-02-12T03:10:42;100478.25;;;8.44;100.00
2184;BME280;1098;48.940;8.962;2023-02-12T03:13:14;100487.69;;;8.06;100.00
2184;BME280;1098;48.940;8.962;2023-02-12T03:15:46;100467.53;;;7.50;100.00
2184;BME280;1098;48.940;8.962;2023-02-12T03:18:20;100478.88;;;7.36;100.00
2184;BME280;1098;48.940;8.962;2023-02-12T03:20:53;100487.94;;;7.35;100.00
2184;BME280;1098;48.940;8.962;2023-02-12T03:23:25;100487.84;;;7.44;100.00
2184;BME280;1098;48.940;8.962;2023-02-12T03:25:57;100485.94;;;7.37;100.00
2184;BME280;1098;48.940;8.962;2023-02-12T03:28:28;100489.47;;;6.58;100.00
2184;BME280;1098;48.940;8.962;2023-02-12T03:31:07;100492.50;;;6.45;100.00
2184;BME280;1098;48.940;8.962;2023-02-12T03:33:53;100496.06;;;6.64;100.00
2184;BME280;1098;48.940;8.962;2023-02-12T03:36:29;100499.47;;;6.83;100.00
2184;BME280;1098;48.940;8.962;2023-02-12T03:39:03;100487.06;;;7.08;100.00
2184;BME280;1098;48.940;8.962;2023-02-12T03:41:41;100486.41;;;7.58;100.00
2184;BME280;1098;48.940;8.962;2023-02-12T03:44:19;100493.75;;;6.86;100.00
2184;BME280;1098;48.940;8.962;2023-02-12T03:46:58;100478.53;;;7.13;100.00
2184;BME280;1098;48.940;8.962;2023-02-12T03:49:34;100482.94;;;7.40;100.00
2184;BME280;1098;48.940;8.962;2023-02-12T03:52:04;100488.38;;;6.86;100.00
2184;BME280;1098;48.940;8.962;2023-02-12T03:54:32;100490.00;;;7.41;100.00
2184;BME280;1098;48.940;8.962;2023-02-12T03:57:06;100481.63;;;7.44;100.00
2184;BME280;1098;48.940;8.962;2023-02-12T03:59:38;100465.47;;;8.04;100.00
2184;BME280;1098;48.940;8.962;2023-02-12T04:02:08;100492.75;;;8.51;100.00
2184;BME280;1098;48.940;8.962;2023-02-12T04:04:38;100498.22;;;9.00;100.00
2184;BME280;1098;48.940;8.962;2023-02-12T04:07:06;100493.00;;;8.98;100.00
2184;BME280;1098;48.940;8.962;2023-02-12T04:09:35;100503.53;;;8.59;100.00
2184;BME280;1098;48.940;8.962;2023-02-12T04:12:19;100504.72;;;8.56;100.00
2184;BME280;1098;48.940;8.962;2023-02-12T04:14:53;100503.53;;;8.59;100.00
2184;BME280;1098;48.940;8.962;2023-02-12T04:17:33;100505.22;;;8.52;100.00
2184;BME280;1098;48.940;8.962;2023-02-12T04:20:14;100500.22;;;8.81;100.00
2184;BME280;1098;48.940;8.962;2023-02-12T04:22:53;100503.25;;;8.94;100.00
2184;BME280;1098;48.940;8.962;2023-02-12T04:25:32;100504.72;;;8.56;100.00
2184;BME280;1098;48.940;8.962;2023-02-12T04:28:09;100507.28;;;7.90;100.00
2184;BME280;1098;48.940;8.962;2023-02-12T04:30:44;100508.41;;;7.79;100.00
2184;BME280;1098;48.940;8.962;2023-02-12T04:33:17;100517.81;;;7.75;100.00
2184;BME280;1098;48.940;8.962;2023-02-12T04:35:50;100512.19;;;8.28;100.00
2184;BME280;1098;48.940;8.962;2023-02-12T04:38:25;100516.38;;;8.23;100.00
2184;BME280;1098;48.940;8.962;2023-02-12T04:40:55;100515.84;;;8.61;100.00
2184;BME280;1098;48.940;8.962;2023-02-12T04:43:27;100509.94;;;8.58;100.00
2184;BME280;1098;48.940;8.962;2023-02-12T04:45:56;100518.78;;;8.34;100.00
2184;BME280;1098;48.940;8.962;2023-02-12T04:48:25;100517.78;;;8.35;100.00
2184;BME280;1098;48.940;8.962;2023-02-12T04:50:55;100524.41;;;7.81;100.00
2184;BME280;1098;48.940;8.962;2023-02-12T04:53:23;100518.88;;;8.58;100.00
2184;BME280;1098;48.940;8.962;2023-02-12T04:55:51;100523.59;;;8.22;100.00
2184;BME280;1098;48.940;8.962;2023-02-12T04:58:21;100524.25;;;8.50;100.00
2184;BME280;1098;48.940;8.962;2023-02-12T05:00:50;100508.19;;;7.73;100.00
2184;BME280;1098;48.940;8.962;2023-02-12T05:03:18;100514.88;;;8.28;100.00
2184;BME280;1098;48.940;8.962;2023-02-12T05:05:46;100506.72;;;8.54;100.00
2184;BME280;1098;48.940;8.962;2023-02-12T05:08:16;100517.72;;;8.69;100.00
2184;BME280;1098;48.940;8.962;2023-02-12T05:10:44;100509.53;;;8.03;100.00
2184;BME280;1098;48.940;8.962;2023-02-12T05:13:13;100511.22;;;8.04;100.00
2184;BME280;1098;48.940;8.962;2023-02-12T05:15:41;100509.97;;;8.24;100.00
2184;BME280;1098;48.940;8.962;2023-02-12T05:18:09;100506.81;;;7.94;100.00
2184;BME280;1098;48.940;8.962;2023-02-12T05:20:38;100512.41;;;8.01;100.00
2184;BME280;1098;48.940;8.962;2023-02-12T05:23:09;100508.00;;;8.34;100.00
2184;BME280;1098;48.940;8.962;2023-02-12T05:25:38;100509.09;;;8.15;100.00
2184;BME280;1098;48.940;8.962;2023-02-12T05:28:07;100506.69;;;8.04;100.00
2184;BME280;1098;48.940;8.962;2023-02-12T05:30:35;100510.75;;;8.08;100.00
2184;BME280;1098;48.940;8.962;2023-02-12T05:33:04;100490.13;;;7.91;100.00
2184;BME280;1098;48.940;8.962;2023-02-12T05:35:33;100516.38;;;8.23;100.00
2184;BME280;1098;48.940;8.962;2023-02-12T05:38:01;100509.19;;;7.72;100.00
2184;BME280;1098;48.940;8.962;2023-02-12T05:40:30;100518.00;;;7.82;100.00
2184;BME280;1098;48.940;8.962;2023-02-12T05:43:00;100507.78;;;7.85;100.00
2184;BME280;1098;48.940;8.962;2023-02-12T05:45:28;100509.88;;;8.00;100.00
2184;BME280;1098;48.940;8.962;2023-02-12T05:47:56;100515.28;;;7.48;100.00
2184;BME280;1098;48.940;8.962;2023-02-12T05:50:25;100518.31;;;7.53;100.00
2184;BME280;1098;48.940;8.962;2023-02-12T05:52:59;100511.84;;;7.38;100.00
2184;BME280;1098;48.940;8.962;2023-02-12T05:55:27;100516.44;;;7.45;100.00
2184;BME280;1098;48.940;8.962;2023-02-12T05:57:56;100513.25;;;7.76;100.00
2184;BME280;1098;48.940;8.962;2023-02-12T06:00:25;100514.16;;;7.84;100.00
2184;BME280;1098;48.940;8.962;2023-02-12T06:02:54;100510.91;;;8.07;100.00
2184;BME280;1098;48.940;8.962;2023-02-12T06:05:22;100488.38;;;8.16;100.00
2184;BME280;1098;48.940;8.962;2023-02-12T06:07:51;100508.50;;;7.96;100.00
2184;BME280;1098;48.940;8.962;2023-02-12T06:10:19;100500.09;;;7.65;100.00
2184;BME280;1098;48.940;8.962;2023-02-12T06:12:52;100511.19;;;7.70;100.00
2184;BME280;1098;48.940;8.962;2023-02-12T06:15:21;100522.16;;;7.68;100.00
2184;BME280;1098;48.940;8.962;2023-02-12T06:17:51;100521.00;;;7.53;100.00
2184;BME280;1098;48.940;8.962;2023-02-12T06:20:20;100513.53;;;7.39;100.00
2184;BME280;1098;48.940;8.962;2023-02-12T06:22:48;100510.41;;;8.11;100.00
2184;BME280;1098;48.940;8.962;2023-02-12T06:25:16;100517.50;;;8.46;100.00
2184;BME280;1098;48.940;8.962;2023-02-12T06:27:45;100525.47;;;7.62;100.00
2184;BME280;1098;48.940;8.962;2023-02-12T06:30:14;100523.13;;;8.27;100.00
2184;BME280;1098;48.940;8.962;2023-02-12T06:32:42;100531.66;;;6.66;100.00
2184;BME280;1098;48.940;8.962;2023-02-12T06:35:12;100536.16;;;6.47;100.00
2184;BME280;1098;48.940;8.962;2023-02-12T06:37:41;100535.91;;;6.86;100.00
2184;BME280;1098;48.940;8.962;2023-02-12T06:40:10;100542.66;;;6.72;100.00
2184;BME280;1098;48.940;8.962;2023-02-12T06:42:38;100539.31;;;6.43;100.00
2184;BME280;1098;48.940;8.962;2023-02-12T06:45:07;100546.00;;;6.57;100.00
2184;BME280;1098;48.940;8.962;2023-02-12T06:47:35;100550.50;;;6.38;100.00
2184;BME280;1098;48.940;8.962;2023-02-12T06:50:05;100553.19;;;6.38;100.00
2184;BME280;1098;48.940;8.962;2023-02-12T06:52:35;100557.88;;;6.81;100.00
2184;BME280;1098;48.940;8.962;2023-02-12T06:55:04;100561.72;;;6.51;100.00
2184;BME280;1098;48.940;8.962;2023-02-12T06:57:32;100555.72;;;7.20;100.00
2184;BME280;1098;48.940;8.962;2023-02-12T07:00:04;100556.50;;;6.50;100.00
2184;BME280;1098;48.940;8.962;2023-02-12T07:02:34;100566.00;;;6.72;100.00
2184;BME280;1098;48.940;8.962;2023-02-12T07:05:05;100560.28;;;6.57;100.00
2184;BME280;1098;48.940;8.962;2023-02-12T07:07:35;100572.84;;;6.39;100.00
2184;BME280;1098;48.940;8.962;2023-02-12T07:10:04;100562.25;;;6.37;100.00
2184;BME280;1098;48.940;8.962;2023-02-12T07:12:34;100561.09;;;6.85;100.00
2184;BME280;1098;48.940;8.962;2023-02-12T07:15:03;100559.78;;;7.07;100.00
2184;BME280;1098;48.940;8.962;2023-02-12T07:17:32;100569.78;;;6.97;100.00
2184;BME280;1098;48.940;8.962;2023-02-12T07:20:01;100562.72;;;6.96;100.00
2184;BME280;1098;48.940;8.962;2023-02-12T07:22:29;100567.88;;;7.24;100.00
2184;BME280;1098;48.940;8.962;2023-02-12T07:24:59;100560.81;;;7.23;100.00
2184;BME280;1098;48.940;8.962;2023-02-12T07:27:28;100562.66;;;7.49;100.00
2184;BME280;1098;48.940;8.962;2023-02-12T07:29:57;100558.00;;;7.77;100.00
2184;BME280;1098;48.940;8.962;2023-02-12T07:32:25;100552.66;;;8.11;100.00
2184;BME280;1098;48.940;8.962;2023-02-12T07:34:53;100555.66;;;8.34;100.00
2184;BME280;1098;48.940;8.962;2023-02-12T07:37:22;100554.84;;;9.16;100.00
2184;BME280;1098;48.940;8.962;2023-02-12T07:39:50;100523.16;;;9.02;100.00
2184;BME280;1098;48.940;8.962;2023-02-12T07:42:20;100565.09;;;8.96;100.00
2184;BME280;1098;48.940;8.962;2023-02-12T07:44:49;100553.47;;;8.95;100.00
2184;BME280;1098;48.940;8.962;2023-02-12T07:47:17;100550.75;;;8.79;100.00
2184;BME280;1098;48.940;8.962;2023-02-12T07:49:46;100548.28;;;9.75;100.00
2184;BME280;1098;48.940;8.962;2023-02-12T07:52:14;100552.63;;;8.95;100.00
2184;BME280;1098;48.940;8.962;2023-02-12T07:54:42;100558.72;;;8.97;100.00
2184;BME280;1098;48.940;8.962;2023-02-12T07:57:11;100559.09;;;9.43;100.00
2184;BME280;1098;48.940;8.962;2023-02-12T07:59:41;100551.16;;;9.74;100.00
2184;BME280;1098;48.940;8.962;2023-02-12T08:02:09;100556.28;;;8.61;100.00
2184;BME280;1098;48.940;8.962;2023-02-12T08:04:37;100554.22;;;8.55;100.00
2184;BME280;1098;48.940;8.962;2023-02-12T08:07:08;100558.38;;;9.81;100.00
2184;BME280;1098;48.940;8.962;2023-02-12T08:09:37;100542.38;;;9.07;100.00
2184;BME280;1098;48.940;8.962;2023-02-12T08:12:05;100547.28;;;9.36;100.00
2184;BME280;1098;48.940;8.962;2023-02-12T08:14:34;100557.25;;;9.27;100.00
2184;BME280;1098;48.940;8.962;2023-02-12T08:17:03;100544.34;;;8.72;100.00
2184;BME280;1098;48.940;8.962;2023-02-12T08:19:32;100538.19;;;9.53;100.00
2184;BME280;1098;48.940;8.962;2023-02-12T08:22:02;100547.25;;;9.03;100.00
2184;BME280;1098;48.940;8.962;2023-02-12T08:24:32;100538.97;;;8.30;100.00
2184;BME280;1098;48.940;8.962;2023-02-12T08:27:01;100552.69;;;7.85;100.00
2184;BME280;1098;48.940;8.962;2023-02-12T08:29:29;100551.78;;;7.76;100.00
2184;BME280;1098;48.940;8.962;2023-02-12T08:31:59;100558.00;;;7.77;100.00
2184;BME280;1098;48.940;8.962;2023-02-12T08:34:30;100561.00;;;7.74;100.00
2184;BME280;1098;48.940;8.962;2023-02-12T08:36:59;100549.03;;;7.42;100.00
2184;BME280;1098;48.940;8.962;2023-02-12T08:39:30;100557.47;;;7.73;100.00
2184;BME280;1098;48.940;8.962;2023-02-12T08:41:59;100561.81;;;7.66;100.00
2184;BME280;1098;48.940;8.962;2023-02-12T08:44:28;100567.63;;;7.79;100.00
2184;BME280;1098;48.940;8.962;2023-02-12T08:46:56;100562.00;;;7.73;100.00
2184;BME280;1098;48.940;8.962;2023-02-12T08:49:27;100560.44;;;7.88;100.00
2184;BME280;1098;48.940;8.962;2023-02-12T08:51:58;100560.16;;;7.73;100.00
2184;BME280;1098;48.940;8.962;2023-02-12T08:54:29;100538.94;;;7.96;100.00
2184;BME280;1098;48.940;8.962;2023-02-12T08:57:00;100558.75;;;8.47;100.00
2184;BME280;1098;48.940;8.962;2023-02-12T08:59:29;100564.31;;;8.53;100.00
2184;BME280;1098;48.940;8.962;2023-02-12T09:01:57;100566.94;;;8.37;100.00
2184;BME280;1098;48.940;8.962;2023-02-12T09:04:27;100566.53;;;8.24;100.00
2184;BME280;1098;48.940;8.962;2023-02-12T09:06:57;100568.78;;;8.71;100.00
2184;BME280;1098;48.940;8.962;2023-02-12T09:09:26;100564.09;;;8.13;100.00
2184;BME280;1098;48.940;8.962;2023-02-12T09:11:54;100575.94;;;8.20;100.00
2184;BME280;1098;48.940;8.962;2023-02-12T09:14:23;100574.38;;;7.83;100.00
2184;BME280;1098;48.940;8.962;2023-02-12T09:16:52;100579.38;;;8.30;100.00
2184;BME280;1098;48.940;8.962;2023-02-12T09:19:20;100574.22;;;8.45;100.00
2184;BME280;1098;48.940;8.962;2023-02-12T09:21:50;100583.63;;;8.41;100.00
2184;BME280;1098;48.940;8.962;2023-02-12T09:24:23;100576.81;;;8.28;100.00
2184;BME280;1098;48.940;8.962;2023-02-12T09:26:53;100576.94;;;9.03;100.00
2184;BME280;1098;48.940;8.962;2023-02-12T09:29:21;100573.56;;;9.01;100.00
2184;BME280;1098;48.940;8.962;2023-02-12T09:31:50;100568.63;;;8.80;100.00
2184;BME280;1098;48.940;8.962;2023-02-12T09:34:19;100574.78;;;8.56;100.00
2184;BME280;1098;48.940;8.962;2023-02-12T09:36:47;100560.09;;;9.09;100.00
2184;BME280;1098;48.940;8.962;2023-02-12T09:39:15;100570.38;;;9.14;100.00
2184;BME280;1098;48.940;8.962;2023-02-12T09:42:14;100568.88;;;9.76;100.00
2184;BME280;1098;48.940;8.962;2023-02-12T09:45:02;100576.63;;;9.39;100.00
2184;BME280;1098;48.940;8.962;2023-02-12T09:47:44;100570.56;;;9.45;100.00
2184;BME280;1098;48.940;8.962;2023-02-12T09:50:45;100575.25;;;9.91;100.00
2184;BME280;1098;48.940;8.962;2023-02-12T09:53:18;100573.59;;;9.42;100.00
2184;BME280;1098;48.940;8.962;2023-02-12T09:56:13;100577.63;;;9.70;100.00
2184;BME280;1098;48.940;8.962;2023-02-12T09:58:49;100588.06;;;9.08;100.00
2184;BME280;1098;48.940;8.962;2023-02-12T10:01:21;100579.16;;;9.32;100.00
2184;BME280;1098;48.940;8.962;2023-02-12T10:03:51;100584.06;;;9.45;100.00
2184;BME280;1098;48.940;8.962;2023-02-12T10:06:21;100573.56;;;8.93;100.00
2184;BME280;1098;48.940;8.962;2023-02-12T10:09:01;100574.41;;;9.91;100.00
2184;BME280;1098;48.940;8.962;2023-02-12T10:14:47;100573.75;;;9.64;100.00
2184;BME280;1098;48.940;8.962;2023-02-12T10:17:24;100575.75;;;10.58;100.00
2184;BME280;1098;48.940;8.962;2023-02-12T10:20:11;100568.84;;;9.92;100.00
2184;BME280;1098;48.940;8.962;2023-02-12T10:22:51;100571.91;;;9.57;100.00
2184;BME280;1098;48.940;8.962;2023-02-12T10:25:28;100574.06;;;9.78;100.00
2184;BME280;1098;48.940;8.962;2023-02-12T10:28:08;100562.53;;;10.24;100.00
2184;BME280;1098;48.940;8.962;2023-02-12T10:30:44;100571.56;;;9.60;100.00
2184;BME280;1098;48.940;8.962;2023-02-12T10:33:18;100574.91;;;9.86;100.00
2184;BME280;1098;48.940;8.962;2023-02-12T10:35:51;100569.50;;;9.94;100.00
2184;BME280;1098;48.940;8.962;2023-02-12T10:38:25;100555.38;;;9.68;100.00
2184;BME280;1098;48.940;8.962;2023-02-12T10:40:54;100570.25;;;10.75;100.00
2184;BME280;1098;48.940;8.962;2023-02-12T10:43:28;100573.06;;;9.62;100.00
2184;BME280;1098;48.940;8.962;2023-02-12T10:45:58;100566.41;;;10.14;100.00
2184;BME280;1098;48.940;8.962;2023-02-12T10:48:30;100561.31;;;10.35;100.00
2184;BME280;1098;48.940;8.962;2023-02-12T10:51:11;100557.25;;;10.39;100.00
2184;BME280;1098;48.940;8.962;2023-02-12T10:53:44;100557.69;;;9.79;100.00
2184;BME280;1098;48.940;8.962;2023-02-12T10:56:15;100555.91;;;10.35;100.00
2184;BME280;1098;48.940;8.962;2023-02-12T10:58:53;100547.84;;;10.11;100.00
2184;BME280;1098;48.940;8.962;2023-02-12T11:01:26;100554.50;;;10.47;100.00
2184;BME280;1098;48.940;8.962;2023-02-12T11:03:56;100539.63;;;9.96;100.00
2184;BME280;1098;48.940;8.962;2023-02-12T11:06:27;100547.34;;;10.07;100.00
2184;BME280;1098;48.940;8.962;2023-02-12T11:08:58;100550.88;;;10.63;100.00
2184;BME280;1098;48.940;8.962;2023-02-12T11:11:27;100535.75;;;10.46;100.00
2184;BME280;1098;48.940;8.962;2023-02-12T11:13:59;100532.66;;;11.71;100.00
2184;BME280;1098;48.940;8.962;2023-02-12T11:16:32;100546.16;;;11.56;100.00
2184;BME280;1098;48.940;8.962;2023-02-12T11:19:03;100521.38;;;10.53;100.00
2184;BME280;1098;48.940;8.962;2023-02-12T11:21:34;100542.03;;;10.77;100.00
2184;BME280;1098;48.940;8.962;2023-02-12T11:24:28;100541.34;;;10.75;100.00
2184;BME280;1098;48.940;8.962;2023-02-12T11:27:20;100540.41;;;10.91;100.00
2184;BME280;1098;48.940;8.962;2023-02-12T11:30:11;100527.06;;;11.12;100.00
2184;BME280;1098;48.940;8.962;2023-02-12T11:32:41;100543.53;;;11.02;100.00
2184;BME280;1098;48.940;8.962;2023-02-12T11:35:13;100530.03;;;10.80;100.00
2184;BME280;1098;48.940;8.962;2023-02-12T11:37:45;100533.41;;;10.43;100.00
2184;BME280;1098;48.940;8.962;2023-02-12T11:40:20;100530.31;;;11.30;100.00
2184;BME280;1098;48.940;8.962;2023-02-12T11:42:51;100526.06;;;11.51;100.00
2184;BME280;1098;48.940;8.962;2023-02-12T11:45:21;100535.16;;;11.20;100.00
2184;BME280;1098;48.940;8.962;2023-02-12T11:47:54;100524.78;;;11.84;100.00
2184;BME280;1098;48.940;8.962;2023-02-12T11:50:25;100527.91;;;12.61;100.00
2184;BME280;1098;48.940;8.962;2023-02-12T11:53:03;100529.50;;;11.45;100.00
2184;BME280;1098;48.940;8.962;2023-02-12T11:55:37;100526.19;;;11.57;100.00
2184;BME280;1098;48.940;8.962;2023-02-12T11:58:13;100523.97;;;11.61;100.00
2184;BME280;1098;48.940;8.962;2023-02-12T12:00:45;100522.44;;;11.81;100.00
2184;BME280;1098;48.940;8.962;2023-02-12T12:03:22;100523.81;;;11.40;100.00
2184;BME280;1098;48.940;8.962;2023-02-12T12:05:55;100515.91;;;11.15;100.00
2184;BME280;1098;48.940;8.962;2023-02-12T12:08:28;100514.38;;;12.32;100.00
2184;BME280;1098;48.940;8.962;2023-02-12T12:11:03;100512.63;;;11.95;100.00
2184;BME280;1098;48.940;8.962;2023-02-12T12:13:37;100508.38;;;11.63;100.00
2184;BME280;1098;48.940;8.962;2023-02-12T12:16:11;100507.72;;;12.64;100.00
2184;BME280;1098;48.940;8.962;2023-02-12T12:19:04;100499.78;;;11.59;100.00
2184;BME280;1098;48.940;8.962;2023-02-12T12:21:57;100493.72;;;11.20;100.00
2184;BME280;1098;48.940;8.962;2023-02-12T12:24:37;100488.53;;;11.48;100.00
2184;BME280;1098;48.940;8.962;2023-02-12T12:27:14;100493.06;;;11.70;100.00
2184;BME280;1098;48.940;8.962;2023-02-12T12:30:11;100488.00;;;11.67;100.00
2184;BME280;1098;48.940;8.962;2023-02-12T12:32:44;100488.03;;;10.61;100.00
2184;BME280;1098;48.940;8.962;2023-02-12T12:35:20;100492.28;;;11.47;100.00
2184;BME280;1098;48.940;8.962;2023-02-12T12:37:53;100496.75;;;12.21;100.00
2184;BME280;1098;48.940;8.962;2023-02-12T12:40:41;100498.09;;;11.73;100.00
2184;BME280;1098;48.940;8.962;2023-02-12T12:43:20;100499.28;;;10.42;100.00
2184;BME280;1098;48.940;8.962;2023-02-12T12:49:00;100498.34;;;11.11;100.00
2184;BME280;1098;48.940;8.962;2023-02-12T12:51:48;100487.47;;;11.19;100.00
2184;BME280;1098;48.940;8.962;2023-02-12T12:54:29;100485.34;;;11.07;100.00
2184;BME280;1098;48.940;8.962;2023-02-12T12:57:04;100462.69;;;10.62;100.00
2184;BME280;1098;48.940;8.962;2023-02-12T13:02:55;100466.72;;;11.64;100.00
2184;BME280;1098;48.940;8.962;2023-02-12T13:05:42;100466.56;;;12.24;100.00
2184;BME280;1098;48.940;8.962;2023-02-12T13:08:27;100466.28;;;11.75;100.00
2184;BME280;1098;48.940;8.962;2023-02-12T13:11:05;100470.13;;;11.06;100.00
2184;BME280;1098;48.940;8.962;2023-02-12T13:13:43;100444.69;;;11.52;100.00
2184;BME280;1098;48.940;8.962;2023-02-12T13:16:18;100456.03;;;10.95;100.00
2184;BME280;1098;48.940;8.962;2023-02-12T13:18:54;100456.00;;;11.18;100.00
2184;BME280;1098;48.940;8.962;2023-02-12T13:21:35;100438.34;;;10.85;100.00
2184;BME280;1098;48.940;8.962;2023-02-12T13:24:18;100443.94;;;11.73;100.00
2184;BME280;1098;48.940;8.962;2023-02-12T13:26:55;100442.38;;;11.93;100.00
2184;BME280;1098;48.940;8.962;2023-02-12T13:29:27;100431.19;;;11.82;100.00
2184;BME280;1098;48.940;8.962;2023-02-12T13:32:00;100441.75;;;11.77;100.00
2184;BME280;1098;48.940;8.962;2023-02-12T13:34:31;100436.97;;;11.26;100.00
2184;BME280;1098;48.940;8.962;2023-02-12T13:37:03;100443.72;;;11.30;100.00
2184;BME280;1098;48.940;8.962;2023-02-12T13:39:37;100435.75;;;11.96;100.00
2184;BME280;1098;48.940;8.962;2023-02-12T13:42:15;100439.97;;;10.94;100.00
2184;BME280;1098;48.940;8.962;2023-02-12T13:44:55;100428.84;;;11.79;100.00
2184;BME280;1098;48.940;8.962;2023-02-12T13:47:29;100422.72;;;12.21;100.00
2184;BME280;1098;48.940;8.962;2023-02-12T13:50:03;100426.94;;;12.09;100.00